createdAt,value
2019-04-26T00:00:18.534Z,13.28
2019-04-26T00:01:18.523Z,13.35
2019-04-26T00:02:18.574Z,13.29
2019-04-26T00:03:18.561Z,13.19
2019-04-26T00:04:18.516Z,13.16
2019-04-26T00:05:18.531Z,13.19
2019-04-26T00:06:18.711Z,13.13
2019-04-26T00:07:18.795Z,13.17
2019-04-26T00:08:18.444Z,13.16
2019-04-26T00:09:18.459Z,13.16
2019-04-26T00:10:18.420Z,13.12
2019-04-26T00:11:18.409Z,13.16
2019-04-26T00:12:18.587Z,13.03
2019-04-26T00:13:18.387Z,12.99
2019-04-26T00:14:18.403Z,13.04
2019-04-26T00:15:18.666Z,13.06
2019-04-26T00:16:18.894Z,13.04
2019-04-26T00:17:18.345Z,13.01
2019-04-26T00:18:18.872Z,12.87
2019-04-26T00:19:18.324Z,12.95
2019-04-26T00:20:19.117Z,13.01
2019-04-26T00:21:18.529Z,12.99
2019-04-26T00:22:19.152Z,12.94
2019-04-26T00:23:18.368Z,13.04
2019-04-26T00:24:19.345Z,12.99
2019-04-26T00:25:18.662Z,12.91
2019-04-26T00:26:18.244Z,12.92
2019-04-26T00:27:19.034Z,12.94
2019-04-26T00:28:18.974Z,12.89
2019-04-26T00:29:18.988Z,12.94
2019-04-26T00:30:19.137Z,12.89
2019-04-26T00:31:19.219Z,12.95
2019-04-26T00:32:19.175Z,12.96
2019-04-26T00:33:19.357Z,12.94
2019-04-26T00:34:18.150Z,12.96
2019-04-26T00:35:18.163Z,12.99
2019-04-26T00:36:18.704Z,12.94
2019-04-26T00:37:18.116Z,12.88
2019-04-26T00:38:18.246Z,13.01
2019-04-26T00:39:18.250Z,13.03
2019-04-26T00:40:18.294Z,12.92
2019-04-26T00:41:18.507Z,12.87
2019-04-26T00:42:18.540Z,12.94
2019-04-26T00:43:18.543Z,12.94
2019-04-26T00:44:18.672Z,12.84
2019-04-26T00:45:18.729Z,12.88
2019-04-26T00:46:18.840Z,12.87
2019-04-26T00:47:19.013Z,12.84
2019-04-26T00:48:18.914Z,12.87
2019-04-26T00:49:19.123Z,12.85
2019-04-26T00:50:19.079Z,12.80
2019-04-26T00:51:17.969Z,12.71
2019-04-26T00:52:17.944Z,12.81
2019-04-26T00:53:17.939Z,12.76
2019-04-26T00:54:18.004Z,12.76
2019-04-26T00:55:17.934Z,12.76
2019-04-26T00:56:18.046Z,12.85
2019-04-26T00:57:18.223Z,12.88
2019-04-26T00:58:18.654Z,12.89
2019-04-26T00:59:18.402Z,12.87
2019-04-26T01:00:18.241Z,12.85
2019-04-26T01:01:18.622Z,12.91
2019-04-26T01:02:18.630Z,12.88
2019-04-26T01:03:18.651Z,12.88
2019-04-26T01:04:18.799Z,12.89
2019-04-26T01:05:18.809Z,12.88
2019-04-26T01:06:18.834Z,12.94
2019-04-26T01:07:17.774Z,12.98
2019-04-26T01:08:17.765Z,12.99
2019-04-26T01:09:17.770Z,12.99
2019-04-26T01:10:17.826Z,12.95
2019-04-26T01:11:17.730Z,12.92
2019-04-26T01:12:17.850Z,12.84
2019-04-26T01:13:17.886Z,12.80
2019-04-26T01:14:17.904Z,12.73
2019-04-26T01:15:19.985Z,12.80
2019-04-26T01:16:18.355Z,12.73
2019-04-26T01:17:18.679Z,12.76
2019-04-26T01:18:18.198Z,12.66
2019-04-26T01:19:18.559Z,12.69
2019-04-26T01:20:18.827Z,12.73
2019-04-26T01:21:18.537Z,12.69
2019-04-26T01:22:18.380Z,12.74
2019-04-26T01:23:18.748Z,12.69
2019-04-26T01:24:18.393Z,12.59
2019-04-26T01:25:17.620Z,12.62
2019-04-26T01:26:17.956Z,12.71
2019-04-26T01:27:18.450Z,12.67
2019-04-26T01:28:18.514Z,12.70
2019-04-26T01:29:18.612Z,12.67
2019-04-26T01:30:18.330Z,12.62
2019-04-26T01:31:18.588Z,12.70
2019-04-26T01:32:17.717Z,12.62
2019-04-26T01:33:17.661Z,12.69
2019-04-26T01:34:17.764Z,12.71
2019-04-26T01:35:17.859Z,12.74
2019-04-26T01:36:18.248Z,12.70
2019-04-26T01:37:18.283Z,12.71
2019-04-26T01:38:17.425Z,12.71
2019-04-26T01:39:17.416Z,12.67
2019-04-26T01:40:17.402Z,12.70
2019-04-26T01:41:17.415Z,12.71
2019-04-26T01:42:17.382Z,12.63
2019-04-26T01:43:17.367Z,12.67
2019-04-26T01:44:17.366Z,12.62
2019-04-26T01:45:17.344Z,12.59
2019-04-26T01:46:17.359Z,12.55
2019-04-26T01:47:17.323Z,12.54
2019-04-26T01:48:17.311Z,12.49
2019-04-26T01:49:17.301Z,12.49
2019-04-26T01:50:17.291Z,12.51
2019-04-26T01:51:17.280Z,12.48
2019-04-26T01:52:17.291Z,12.56
2019-04-26T01:53:17.255Z,12.58
2019-04-26T01:54:17.245Z,12.62
2019-04-26T01:55:17.243Z,12.66
2019-04-26T01:56:17.221Z,12.58
2019-04-26T01:57:17.243Z,12.59
2019-04-26T01:58:17.210Z,12.54
2019-04-26T01:59:17.187Z,12.54
2019-04-26T02:00:17.175Z,12.52
2019-04-26T02:01:17.165Z,12.43
2019-04-26T02:02:17.175Z,12.44
2019-04-26T02:03:17.142Z,12.41
2019-04-26T02:04:17.130Z,12.41
2019-04-26T02:05:17.118Z,12.49
2019-04-26T02:06:25.276Z,12.37
2019-04-26T02:07:18.117Z,12.46
2019-04-26T02:08:17.092Z,12.40
2019-04-26T02:09:17.079Z,12.36
2019-04-26T02:10:17.067Z,12.23
2019-04-26T02:11:17.053Z,12.30
2019-04-26T02:12:17.064Z,12.30
2019-04-26T02:13:17.027Z,12.25
2019-04-26T02:14:17.018Z,12.25
2019-04-26T02:15:17.006Z,12.29
2019-04-26T02:16:16.996Z,12.37
2019-04-26T02:17:17.018Z,12.26
2019-04-26T02:18:16.972Z,12.25
2019-04-26T02:19:16.963Z,12.31
2019-04-26T02:20:16.951Z,12.22
2019-04-26T02:21:16.938Z,12.23
2019-04-26T02:22:16.927Z,12.31
2019-04-26T02:23:16.939Z,12.25
2019-04-26T02:24:16.907Z,12.19
2019-04-26T02:25:16.893Z,12.16
2019-04-26T02:26:16.881Z,12.19
2019-04-26T02:27:16.877Z,12.07
2019-04-26T02:28:16.881Z,12.11
2019-04-26T02:29:16.849Z,12.08
2019-04-26T02:30:16.883Z,12.07
2019-04-26T02:31:16.823Z,12.07
2019-04-26T02:32:16.815Z,12.05
2019-04-26T02:33:16.828Z,12.00
2019-04-26T02:34:16.795Z,12.00
2019-04-26T02:35:16.786Z,11.85
2019-04-26T02:36:16.791Z,11.81
2019-04-26T02:37:16.757Z,11.88
2019-04-26T02:38:16.771Z,11.84
2019-04-26T02:39:16.734Z,11.84
2019-04-26T02:40:16.725Z,11.82
2019-04-26T02:41:16.712Z,11.85
2019-04-26T02:42:16.702Z,11.90
2019-04-26T02:43:16.715Z,11.85
2019-04-26T02:44:16.678Z,11.90
2019-04-26T02:45:16.670Z,11.85
2019-04-26T02:46:16.729Z,11.79
2019-04-26T02:47:16.644Z,11.82
2019-04-26T02:48:16.655Z,11.79
2019-04-26T02:49:16.625Z,11.84
2019-04-26T02:50:16.616Z,11.75
2019-04-26T02:51:16.600Z,11.77
2019-04-26T02:52:16.619Z,11.82
2019-04-26T02:53:16.599Z,11.79
2019-04-26T02:54:16.567Z,11.93
2019-04-26T02:55:16.556Z,11.79
2019-04-26T02:56:16.552Z,11.88
2019-04-26T02:57:16.620Z,11.88
2019-04-26T02:58:16.520Z,11.79
2019-04-26T02:59:16.532Z,11.90
2019-04-26T03:00:16.508Z,11.87
2019-04-26T03:01:16.485Z,12.00
2019-04-26T03:02:16.482Z,12.03
2019-04-26T03:03:16.461Z,12.03
2019-04-26T03:04:16.474Z,12.01
2019-04-26T03:05:16.440Z,12.05
2019-04-26T03:06:16.430Z,12.07
2019-04-26T03:07:16.418Z,12.03
2019-04-26T03:08:16.420Z,12.05
2019-04-26T03:09:16.438Z,12.05
2019-04-26T03:10:16.390Z,12.07
2019-04-26T03:11:17.402Z,12.04
2019-04-26T03:12:16.368Z,12.03
2019-04-26T03:13:16.352Z,12.04
2019-04-26T03:14:16.348Z,12.03
2019-04-26T03:15:16.351Z,12.07
2019-04-26T03:16:16.314Z,12.08
2019-04-26T03:17:16.306Z,12.11
2019-04-26T03:18:16.298Z,12.05
2019-04-26T03:19:16.283Z,12.05
2019-04-26T03:20:16.295Z,12.03
2019-04-26T03:21:16.260Z,11.93
2019-04-26T03:22:16.255Z,11.84
2019-04-26T03:23:16.237Z,11.79
2019-04-26T03:24:16.230Z,11.75
2019-04-26T03:25:16.262Z,11.60
2019-04-26T03:26:16.203Z,11.62
2019-04-26T03:27:16.197Z,11.62
2019-04-26T03:28:16.180Z,11.64
2019-04-26T03:29:16.176Z,11.62
2019-04-26T03:30:21.154Z,11.42
2019-04-26T03:31:17.540Z,11.56
2019-04-26T03:32:17.306Z,11.49
2019-04-26T03:33:16.292Z,11.51
2019-04-26T03:34:16.399Z,11.44
2019-04-26T03:35:16.109Z,11.38
2019-04-26T03:36:16.114Z,11.38
2019-04-26T03:37:20.980Z,11.36
2019-04-26T03:38:17.066Z,11.38
2019-04-26T03:39:16.057Z,11.42
2019-04-26T03:40:16.044Z,11.54
2019-04-26T03:41:16.055Z,11.54
2019-04-26T03:42:16.023Z,11.49
2019-04-26T03:43:16.010Z,11.51
2019-04-26T03:44:15.999Z,11.57
2019-04-26T03:45:15.990Z,11.62
2019-04-26T03:46:16.003Z,11.63
2019-04-26T03:47:15.973Z,11.59
2019-04-26T03:48:15.959Z,11.51
2019-04-26T03:49:15.946Z,11.38
2019-04-26T03:50:15.941Z,11.38
2019-04-26T03:51:15.942Z,11.27
2019-04-26T03:52:15.910Z,11.30
2019-04-26T03:53:15.903Z,11.19
2019-04-26T03:54:15.887Z,11.33
2019-04-26T03:55:15.876Z,11.24
2019-04-26T03:56:15.890Z,11.33
2019-04-26T03:57:15.855Z,11.21
2019-04-26T03:58:15.846Z,11.33
2019-04-26T03:59:15.836Z,11.31
2019-04-26T04:00:15.822Z,11.46
2019-04-26T04:01:15.831Z,11.51
2019-04-26T04:02:15.795Z,11.38
2019-04-26T04:03:15.796Z,11.46
2019-04-26T04:04:15.773Z,11.51
2019-04-26T04:05:15.763Z,11.53
2019-04-26T04:06:15.774Z,11.54
2019-04-26T04:07:15.753Z,11.59
2019-04-26T04:08:15.735Z,11.53
2019-04-26T04:09:18.052Z,11.54
2019-04-26T04:10:15.703Z,11.45
2019-04-26T04:11:15.717Z,11.36
2019-04-26T04:12:15.746Z,11.23
2019-04-26T04:13:15.671Z,11.31
2019-04-26T04:14:15.774Z,11.24
2019-04-26T04:15:15.653Z,11.38
2019-04-26T04:16:15.637Z,11.24
2019-04-26T04:17:15.649Z,11.42
2019-04-26T04:18:15.614Z,11.41
2019-04-26T04:19:15.609Z,11.42
2019-04-26T04:20:15.591Z,11.49
2019-04-26T04:21:15.614Z,11.42
2019-04-26T04:22:15.599Z,11.49
2019-04-26T04:23:15.556Z,11.51
2019-04-26T04:24:15.545Z,11.53
2019-04-26T04:25:15.546Z,11.51
2019-04-26T04:26:15.525Z,11.60
2019-04-26T04:27:15.544Z,11.57
2019-04-26T04:28:15.500Z,11.59
2019-04-26T04:29:15.490Z,11.60
2019-04-26T04:30:15.480Z,11.63
2019-04-26T04:31:15.468Z,11.59
2019-04-26T04:32:15.517Z,11.59
2019-04-26T04:33:15.442Z,11.60
2019-04-26T04:34:15.432Z,11.59
2019-04-26T04:35:15.422Z,11.49
2019-04-26T04:36:15.410Z,11.59
2019-04-26T04:37:15.401Z,11.63
2019-04-26T04:38:15.412Z,11.62
2019-04-26T04:39:15.380Z,11.63
2019-04-26T04:40:15.365Z,11.64
2019-04-26T04:41:15.353Z,11.63
2019-04-26T04:42:15.341Z,11.60
2019-04-26T04:43:15.438Z,11.66
2019-04-26T04:44:15.318Z,11.64
2019-04-26T04:45:15.308Z,11.60
2019-04-26T04:46:15.486Z,11.54
2019-04-26T04:47:24.691Z,11.62
2019-04-26T04:48:16.302Z,11.54
2019-04-26T04:49:15.267Z,11.49
2019-04-26T04:50:15.252Z,11.54
2019-04-26T04:51:15.242Z,11.53
2019-04-26T04:52:15.229Z,11.49
2019-04-26T04:53:15.241Z,11.62
2019-04-26T04:54:15.206Z,11.59
2019-04-26T04:55:15.197Z,11.49
2019-04-26T04:56:15.184Z,11.49
2019-04-26T04:57:15.172Z,11.51
2019-04-26T04:58:15.195Z,11.51
2019-04-26T04:59:15.151Z,11.48
2019-04-26T05:00:15.139Z,11.59
2019-04-26T05:01:15.126Z,11.62
2019-04-26T05:02:15.115Z,11.60
2019-04-26T05:03:15.106Z,11.63
2019-04-26T05:04:15.116Z,11.54
2019-04-26T05:05:15.085Z,11.53
2019-04-26T05:06:15.070Z,11.49
2019-04-26T05:07:15.058Z,11.53
2019-04-26T05:08:15.049Z,11.46
2019-04-26T05:09:15.058Z,11.46
2019-04-26T05:10:15.026Z,11.49
2019-04-26T05:11:15.014Z,11.56
2019-04-26T05:12:15.003Z,11.60
2019-04-26T05:13:14.992Z,11.57
2019-04-26T05:14:15.040Z,11.51
2019-04-26T05:15:14.971Z,11.41
2019-04-26T05:16:14.956Z,11.49
2019-04-26T05:17:14.946Z,11.44
2019-04-26T05:18:14.937Z,11.48
2019-04-26T05:19:14.947Z,11.42
2019-04-26T05:20:14.910Z,11.49
2019-04-26T05:21:14.899Z,11.44
2019-04-26T05:22:14.889Z,11.42
2019-04-26T05:23:14.878Z,11.56
2019-04-26T05:24:14.893Z,11.54
2019-04-26T05:25:14.855Z,11.59
2019-04-26T05:26:14.843Z,11.60
2019-04-26T05:27:14.833Z,11.62
2019-04-26T05:28:14.825Z,11.53
2019-04-26T05:29:14.855Z,11.57
2019-04-26T05:30:14.799Z,11.64
2019-04-26T05:31:14.788Z,11.59
2019-04-26T05:32:14.785Z,11.66
2019-04-26T05:33:14.765Z,11.66
2019-04-26T05:34:14.754Z,11.75
2019-04-26T05:35:14.766Z,11.72
2019-04-26T05:36:14.731Z,11.74
2019-04-26T05:37:14.721Z,11.75
2019-04-26T05:38:18.607Z,11.77
2019-04-26T05:39:14.697Z,11.78
2019-04-26T05:40:14.712Z,11.79
2019-04-26T05:41:14.676Z,11.79
2019-04-26T05:42:14.662Z,11.78
2019-04-26T05:43:14.652Z,11.84
2019-04-26T05:44:14.639Z,11.84
2019-04-26T05:45:14.652Z,11.84
2019-04-26T05:46:14.618Z,11.78
2019-04-26T05:47:14.606Z,11.77
2019-04-26T05:48:14.596Z,11.84
2019-04-26T05:49:14.586Z,11.88
2019-04-26T05:50:14.576Z,11.88
2019-04-26T05:51:14.584Z,11.87
2019-04-26T05:52:14.550Z,11.88
2019-04-26T05:53:14.539Z,11.82
2019-04-26T05:54:14.529Z,11.84
2019-04-26T05:55:14.516Z,11.72
2019-04-26T05:56:14.526Z,11.93
2019-04-26T05:57:14.493Z,11.88
2019-04-26T05:58:14.483Z,11.93
2019-04-26T05:59:14.471Z,11.82
2019-04-26T06:00:14.459Z,11.88
2019-04-26T06:01:14.480Z,11.97
2019-04-26T06:02:14.448Z,12.01
2019-04-26T06:03:14.427Z,11.97
2019-04-26T06:04:14.413Z,12.01
2019-04-26T06:05:14.401Z,12.05
2019-04-26T06:06:14.414Z,12.08
2019-04-26T06:07:14.379Z,12.05
2019-04-26T06:08:14.368Z,12.15
2019-04-26T06:09:14.358Z,12.25
2019-04-26T06:10:14.345Z,12.19
2019-04-26T06:11:14.364Z,12.12
2019-04-26T06:12:14.323Z,12.13
2019-04-26T06:13:14.312Z,12.11
2019-04-26T06:14:14.300Z,12.08
2019-04-26T06:15:14.289Z,12.07
2019-04-26T06:16:14.302Z,12.11
2019-04-26T06:17:14.266Z,12.05
2019-04-26T06:18:14.255Z,12.08
2019-04-26T06:19:14.250Z,12.03
2019-04-26T06:20:22.709Z,12.11
2019-04-26T06:21:15.243Z,12.00
2019-04-26T06:22:14.209Z,11.98
2019-04-26T06:23:14.198Z,11.79
2019-04-26T06:24:14.188Z,11.79
2019-04-26T06:25:14.188Z,11.90
2019-04-26T06:26:14.192Z,11.90
2019-04-26T06:27:14.534Z,11.78
2019-04-26T06:28:14.141Z,11.81
2019-04-26T06:29:14.132Z,11.77
2019-04-26T06:30:14.119Z,11.85
2019-04-26T06:31:14.132Z,11.77
2019-04-26T06:32:14.097Z,11.82
2019-04-26T06:33:15.176Z,11.87
2019-04-26T06:34:14.073Z,11.81
2019-04-26T06:35:14.062Z,11.81
2019-04-26T06:36:14.166Z,11.85
2019-04-26T06:37:14.044Z,11.82
2019-04-26T06:38:14.028Z,11.77
2019-04-26T06:39:14.017Z,11.90
2019-04-26T06:40:14.005Z,11.77
2019-04-26T06:41:14.021Z,11.72
2019-04-26T06:42:13.982Z,11.79
2019-04-26T06:43:13.973Z,11.82
2019-04-26T06:44:13.960Z,11.77
2019-04-26T06:45:13.949Z,11.74
2019-04-26T06:46:13.939Z,11.78
2019-04-26T06:47:13.950Z,11.77
2019-04-26T06:48:13.965Z,11.69
2019-04-26T06:49:13.904Z,11.63
2019-04-26T06:50:14.928Z,11.66
2019-04-26T06:51:24.054Z,11.72
2019-04-26T06:52:14.893Z,11.77
2019-04-26T06:53:13.868Z,11.79
2019-04-26T06:54:13.851Z,11.79
2019-04-26T06:55:13.835Z,11.82
2019-04-26T06:56:13.826Z,11.75
2019-04-26T06:57:15.326Z,11.70
2019-04-26T06:58:13.802Z,11.66
2019-04-26T06:59:13.790Z,11.64
2019-04-26T07:00:13.781Z,11.72
2019-04-26T07:01:13.770Z,11.66
2019-04-26T07:02:13.783Z,11.67
2019-04-26T07:03:13.747Z,11.66
2019-04-26T07:04:13.751Z,11.66
2019-04-26T07:05:15.324Z,11.72
2019-04-26T07:06:13.712Z,11.64
2019-04-26T07:07:13.723Z,11.75
2019-04-26T07:08:13.689Z,11.77
2019-04-26T07:09:13.682Z,11.78
2019-04-26T07:10:13.674Z,11.67
2019-04-26T07:11:13.653Z,11.79
2019-04-26T07:12:13.798Z,11.75
2019-04-26T07:13:14.781Z,11.78
2019-04-26T07:14:13.625Z,11.75
2019-04-26T07:15:13.608Z,11.74
2019-04-26T07:16:22.338Z,11.75
2019-04-26T07:17:14.587Z,11.81
2019-04-26T07:18:13.603Z,11.72
2019-04-26T07:19:13.571Z,11.72
2019-04-26T07:20:13.552Z,11.74
2019-04-26T07:21:14.326Z,11.82
2019-04-26T07:22:13.543Z,11.79
2019-04-26T07:23:13.545Z,11.79
2019-04-26T07:24:13.513Z,11.78
2019-04-26T07:25:13.503Z,11.84
2019-04-26T07:26:13.797Z,11.87
2019-04-26T07:27:13.473Z,11.84
2019-04-26T07:28:14.551Z,11.93
2019-04-26T07:29:13.451Z,11.82
2019-04-26T07:30:13.524Z,11.96
2019-04-26T07:31:13.430Z,11.88
2019-04-26T07:32:13.418Z,11.93
2019-04-26T07:33:13.431Z,11.93
2019-04-26T07:34:13.405Z,11.98
2019-04-26T07:35:13.382Z,11.98
2019-04-26T07:36:13.372Z,11.98
2019-04-26T07:37:13.362Z,12.05
2019-04-26T07:38:13.370Z,12.01
2019-04-26T07:39:19.942Z,11.94
2019-04-26T07:40:14.325Z,11.97
2019-04-26T07:41:13.316Z,11.97
2019-04-26T07:42:13.304Z,11.88
2019-04-26T07:43:13.296Z,11.84
2019-04-26T07:44:13.307Z,11.87
2019-04-26T07:45:13.269Z,11.88
2019-04-26T07:46:13.260Z,11.98
2019-04-26T07:47:14.370Z,12.00
2019-04-26T07:48:13.249Z,12.05
2019-04-26T07:49:13.247Z,12.04
2019-04-26T07:50:14.153Z,12.23
2019-04-26T07:51:13.655Z,12.16
2019-04-26T07:52:13.193Z,12.29
2019-04-26T07:53:13.443Z,12.23
2019-04-26T07:54:13.232Z,12.25
2019-04-26T07:55:13.159Z,12.25
2019-04-26T07:56:13.578Z,12.29
2019-04-26T07:57:13.134Z,12.38
2019-04-26T07:58:13.210Z,12.46
2019-04-26T07:59:13.140Z,12.51
2019-04-26T08:00:13.109Z,12.48
2019-04-26T08:01:14.054Z,12.55
2019-04-26T08:02:13.419Z,12.56
2019-04-26T08:03:13.082Z,12.70
2019-04-26T08:04:13.960Z,12.70
2019-04-26T08:05:13.533Z,12.56
2019-04-26T08:06:13.708Z,12.41
2019-04-26T08:07:13.277Z,12.44
2019-04-26T08:08:13.013Z,12.48
2019-04-26T08:09:25.157Z,12.41
2019-04-26T08:10:14.684Z,12.34
2019-04-26T08:11:13.011Z,12.38
2019-04-26T08:12:14.126Z,12.43
2019-04-26T08:13:13.124Z,12.40
2019-04-26T08:14:12.968Z,12.38
2019-04-26T08:15:13.495Z,12.41
2019-04-26T08:16:12.917Z,12.40
2019-04-26T08:17:12.906Z,12.41
2019-04-26T08:18:13.100Z,12.43
2019-04-26T08:19:12.886Z,12.44
2019-04-26T08:20:13.965Z,12.44
2019-04-26T08:21:16.649Z,12.37
2019-04-26T08:22:20.342Z,12.36
2019-04-26T08:23:28.195Z,12.38
2019-04-26T08:24:14.048Z,12.38
2019-04-26T08:25:12.840Z,12.34
2019-04-26T08:26:13.418Z,12.38
2019-04-26T08:27:22.349Z,12.40
2019-04-26T08:28:14.291Z,12.43
2019-04-26T08:29:12.770Z,12.38
2019-04-26T08:30:16.173Z,12.33
2019-04-26T08:31:15.571Z,12.33
2019-04-26T08:32:13.743Z,12.23
2019-04-26T08:33:14.334Z,12.16
2019-04-26T08:34:12.718Z,12.19
2019-04-26T08:35:18.544Z,12.08
2019-04-26T08:36:14.692Z,12.07
2019-04-26T08:37:12.734Z,12.11
2019-04-26T08:38:19.114Z,12.11
2019-04-26T08:39:13.656Z,12.23
2019-04-26T08:40:16.452Z,12.19
2019-04-26T08:41:13.634Z,12.29
2019-04-26T08:42:21.062Z,12.23
2019-04-26T08:43:13.959Z,12.29
2019-04-26T08:44:12.601Z,12.36
2019-04-26T08:45:13.919Z,12.36
2019-04-26T08:46:13.067Z,12.44
2019-04-26T08:47:16.777Z,12.52
2019-04-26T08:48:13.554Z,12.52
2019-04-26T08:49:13.141Z,12.56
2019-04-26T08:50:13.677Z,12.59
2019-04-26T08:51:15.356Z,12.52
2019-04-26T08:52:14.478Z,12.61
2019-04-26T08:53:12.502Z,12.74
2019-04-26T08:54:12.487Z,12.69
2019-04-26T08:55:12.481Z,12.71
2019-04-26T08:56:15.199Z,12.70
2019-04-26T08:57:12.456Z,12.77
2019-04-26T08:58:12.463Z,12.70
2019-04-26T08:59:12.432Z,12.73
2019-04-26T09:00:12.421Z,12.73
2019-04-26T09:01:12.431Z,12.79
2019-04-26T09:02:12.396Z,12.74
2019-04-26T09:03:12.385Z,12.79
2019-04-26T09:04:12.375Z,12.73
2019-04-26T09:05:12.374Z,12.74
2019-04-26T09:06:12.374Z,12.87
2019-04-26T09:07:12.340Z,12.80
2019-04-26T09:08:12.329Z,12.91
2019-04-26T09:09:14.329Z,12.85
2019-04-26T09:10:13.309Z,12.87
2019-04-26T09:11:23.687Z,12.88
2019-04-26T09:12:22.513Z,12.85
2019-04-26T09:13:13.272Z,12.88
2019-04-26T09:14:12.269Z,12.81
2019-04-26T09:15:12.250Z,12.89
2019-04-26T09:16:12.362Z,12.85
2019-04-26T09:17:12.227Z,12.71
2019-04-26T09:18:12.215Z,12.70
2019-04-26T09:19:12.205Z,12.79
2019-04-26T09:20:12.192Z,12.81
2019-04-26T09:21:13.233Z,12.76
2019-04-26T09:22:13.216Z,12.76
2019-04-26T09:23:12.159Z,12.74
2019-04-26T09:24:12.151Z,12.81
2019-04-26T09:25:12.138Z,12.80
2019-04-26T09:26:12.716Z,12.70
2019-04-26T09:27:12.114Z,12.71
2019-04-26T09:28:12.105Z,12.70
2019-04-26T09:29:12.093Z,12.79
2019-04-26T09:30:12.079Z,12.81
2019-04-26T09:31:15.434Z,12.81
2019-04-26T09:32:13.080Z,12.94
2019-04-26T09:33:12.100Z,12.94
2019-04-26T09:34:12.056Z,12.99
2019-04-26T09:35:15.310Z,13.04
2019-04-26T09:36:12.013Z,12.99
2019-04-26T09:37:12.022Z,12.98
2019-04-26T09:38:11.995Z,12.94
2019-04-26T09:39:11.978Z,12.98
2019-04-26T09:40:21.178Z,13.04
2019-04-26T09:41:12.957Z,13.07
2019-04-26T09:42:11.968Z,13.16
2019-04-26T09:43:14.955Z,13.13
2019-04-26T09:44:11.921Z,12.96
2019-04-26T09:45:11.910Z,13.03
2019-04-26T09:46:11.898Z,12.92
2019-04-26T09:47:11.913Z,12.95
2019-04-26T09:48:11.878Z,13.01
2019-04-26T09:49:11.868Z,12.95
2019-04-26T09:50:15.268Z,12.87
2019-04-26T09:51:11.845Z,12.94
2019-04-26T09:52:11.855Z,13.03
2019-04-26T09:53:11.823Z,12.98
2019-04-26T09:54:11.819Z,12.91
2019-04-26T09:55:11.796Z,12.94
2019-04-26T09:56:11.790Z,12.98
2019-04-26T09:57:11.779Z,12.92
2019-04-26T09:58:11.786Z,12.95
2019-04-26T09:59:11.754Z,12.98
2019-04-26T10:00:14.358Z,12.99
2019-04-26T10:01:11.728Z,12.99
2019-04-26T10:02:11.762Z,13.01
2019-04-26T10:03:11.731Z,13.03
2019-04-26T10:04:11.695Z,13.01
2019-04-26T10:05:13.313Z,13.09
2019-04-26T10:06:11.675Z,13.09
2019-04-26T10:07:11.664Z,12.99
2019-04-26T10:08:13.009Z,13.04
2019-04-26T10:09:11.682Z,13.03
2019-04-26T10:10:22.331Z,12.99
2019-04-26T10:11:12.615Z,12.96
2019-04-26T10:12:11.606Z,13.03
2019-04-26T10:13:11.615Z,13.03
2019-04-26T10:14:11.581Z,13.01
2019-04-26T10:15:11.570Z,12.98
2019-04-26T10:16:11.559Z,13.01
2019-04-26T10:17:15.461Z,12.94
2019-04-26T10:18:12.564Z,12.95
2019-04-26T10:19:11.527Z,13.03
2019-04-26T10:20:11.513Z,13.17
2019-04-26T10:21:11.508Z,13.12
2019-04-26T10:22:11.491Z,13.22
2019-04-26T10:23:11.503Z,13.21
2019-04-26T10:24:11.468Z,13.22
2019-04-26T10:25:16.501Z,13.39
2019-04-26T10:26:12.451Z,13.44
2019-04-26T10:27:11.438Z,13.39
2019-04-26T10:28:11.758Z,13.38
2019-04-26T10:29:11.411Z,13.39
2019-04-26T10:30:11.404Z,13.48
2019-04-26T10:31:13.445Z,13.39
2019-04-26T10:32:11.385Z,13.48
2019-04-26T10:33:11.388Z,13.53
2019-04-26T10:34:11.940Z,13.46
2019-04-26T10:35:11.345Z,13.53
2019-04-26T10:36:11.333Z,13.59
2019-04-26T10:37:11.320Z,13.73
2019-04-26T10:38:11.332Z,13.80
2019-04-26T10:39:11.309Z,13.90
2019-04-26T10:40:11.287Z,14.06
2019-04-26T10:41:11.275Z,14.16
2019-04-26T10:42:11.275Z,14.21
2019-04-26T10:43:11.287Z,14.30
2019-04-26T10:44:11.242Z,14.36
2019-04-26T10:45:14.686Z,14.45
2019-04-26T10:46:12.223Z,14.49
2019-04-26T10:47:11.209Z,14.53
2019-04-26T10:48:13.941Z,14.44
2019-04-26T10:49:12.116Z,14.54
2019-04-26T10:50:11.173Z,14.48
2019-04-26T10:51:11.162Z,14.48
2019-04-26T10:52:15.404Z,14.56
2019-04-26T10:53:11.140Z,14.59
2019-04-26T10:54:11.153Z,14.67
2019-04-26T10:55:12.204Z,14.72
2019-04-26T10:56:11.105Z,14.63
2019-04-26T10:57:11.096Z,14.45
2019-04-26T10:58:11.091Z,14.30
2019-04-26T10:59:11.133Z,14.19
2019-04-26T11:00:14.082Z,14.26
2019-04-26T11:01:12.047Z,14.24
2019-04-26T11:02:11.037Z,14.26
2019-04-26T11:03:11.028Z,14.46
2019-04-26T11:04:11.038Z,14.46
2019-04-26T11:05:11.673Z,14.48
2019-04-26T11:06:11.995Z,14.49
2019-04-26T11:07:10.984Z,14.54
2019-04-26T11:08:10.978Z,14.59
2019-04-26T11:09:10.986Z,14.57
2019-04-26T11:10:10.953Z,14.57
2019-04-26T11:11:10.942Z,14.49
2019-04-26T11:12:10.924Z,14.54
2019-04-26T11:13:10.914Z,14.46
2019-04-26T11:14:10.905Z,14.56
2019-04-26T11:15:10.913Z,14.63
2019-04-26T11:16:10.887Z,14.66
2019-04-26T11:17:11.512Z,14.67
2019-04-26T11:18:10.857Z,14.60
2019-04-26T11:19:10.858Z,14.48
2019-04-26T11:20:12.062Z,14.44
2019-04-26T11:21:10.826Z,14.53
2019-04-26T11:22:10.812Z,14.44
2019-04-26T11:23:11.780Z,14.27
2019-04-26T11:24:10.788Z,14.42
2019-04-26T11:25:10.801Z,14.35
2019-04-26T11:26:10.767Z,14.39
2019-04-26T11:27:11.228Z,14.35
2019-04-26T11:28:10.753Z,14.24
2019-04-26T11:29:10.735Z,14.34
2019-04-26T11:30:12.236Z,14.34
2019-04-26T11:31:11.715Z,14.48
2019-04-26T11:32:10.698Z,14.49
2019-04-26T11:33:11.399Z,14.54
2019-04-26T11:34:10.675Z,14.59
2019-04-26T11:35:10.696Z,14.64
2019-04-26T11:36:10.742Z,14.85
2019-04-26T11:37:13.387Z,14.79
2019-04-26T11:38:11.629Z,14.83
2019-04-26T11:39:10.638Z,15.00
2019-04-26T11:40:14.458Z,14.98
2019-04-26T11:41:11.630Z,15.25
2019-04-26T11:42:11.745Z,15.19
2019-04-26T11:43:10.574Z,15.04
2019-04-26T11:44:10.562Z,15.18
2019-04-26T11:45:14.187Z,15.15
2019-04-26T11:46:10.562Z,15.18
2019-04-26T11:47:10.531Z,15.18
2019-04-26T11:48:10.519Z,15.09
2019-04-26T11:49:10.505Z,14.97
2019-04-26T11:50:12.551Z,14.94
2019-04-26T11:51:11.505Z,15.04
2019-04-26T11:52:10.476Z,14.93
2019-04-26T11:53:11.241Z,14.87
2019-04-26T11:54:10.448Z,14.93
2019-04-26T11:55:10.439Z,14.94
2019-04-26T11:56:10.451Z,14.91
2019-04-26T11:57:12.092Z,14.80
2019-04-26T11:58:10.403Z,14.91
2019-04-26T11:59:10.392Z,14.95
2019-04-26T12:00:10.383Z,15.03
2019-04-26T12:01:10.393Z,15.04
2019-04-26T12:02:12.342Z,15.18
2019-04-26T12:03:11.355Z,15.05
2019-04-26T12:04:10.337Z,15.11
2019-04-26T12:05:10.328Z,14.98
2019-04-26T12:06:10.337Z,15.07
2019-04-26T12:07:10.302Z,15.01
2019-04-26T12:08:10.292Z,14.98
2019-04-26T12:09:10.279Z,15.00
2019-04-26T12:10:11.325Z,15.13
2019-04-26T12:11:18.251Z,15.11
2019-04-26T12:12:13.041Z,15.07
2019-04-26T12:13:10.256Z,15.04
2019-04-26T12:14:20.105Z,15.11
2019-04-26T12:15:11.212Z,15.03
2019-04-26T12:16:10.227Z,15.09
2019-04-26T12:17:10.213Z,15.12
2019-04-26T12:18:11.137Z,15.07
2019-04-26T12:19:10.167Z,15.11
2019-04-26T12:20:10.154Z,15.20
2019-04-26T12:21:10.166Z,15.22
2019-04-26T12:22:10.130Z,15.28
2019-04-26T12:23:13.697Z,15.34
2019-04-26T12:24:11.108Z,15.40
2019-04-26T12:25:10.099Z,15.37
2019-04-26T12:26:10.116Z,15.60
2019-04-26T12:27:10.631Z,15.52
2019-04-26T12:28:10.080Z,15.53
2019-04-26T12:29:10.532Z,15.51
2019-04-26T12:30:10.041Z,15.62
2019-04-26T12:31:10.033Z,15.68
2019-04-26T12:32:10.051Z,15.76
2019-04-26T12:33:10.010Z,15.81
2019-04-26T12:34:09.998Z,15.92
2019-04-26T12:35:09.985Z,15.99
2019-04-26T12:36:13.282Z,15.98
2019-04-26T12:37:13.068Z,16.03
2019-04-26T12:38:10.949Z,15.93
2019-04-26T12:39:09.944Z,15.74
2019-04-26T12:40:11.303Z,15.80
2019-04-26T12:41:11.537Z,15.88
2019-04-26T12:42:12.225Z,15.76
2019-04-26T12:43:09.896Z,15.86
2019-04-26T12:44:09.905Z,15.76
2019-04-26T12:45:12.277Z,15.71
2019-04-26T12:46:10.860Z,15.73
2019-04-26T12:47:09.878Z,15.71
2019-04-26T12:48:12.372Z,15.81
2019-04-26T12:49:10.834Z,15.89
2019-04-26T12:50:09.818Z,15.93
2019-04-26T12:51:12.077Z,15.92
2019-04-26T12:52:09.816Z,16.04